Time;durP1;ratioP1;P1;durP2;ratioP2;P2;SDS_P1;SDS_P2;PMS_P1;PMS_P2;Temp;Humidity;BMP_temperature;BMP_pressure;BME280_temperature;BME280_humidity;BME280_pressure;Samples;Min_cycle;Max_cycle;Signal;HPM_P1;HPM_P2
2022/02/20 00:00:55;;;;;;;;;;;;;;;;;;4793989;28;20560;-64
2022/02/20 00:03:20;;;;;;;;;;;;;;;;;;4794057;28;20644;-65
2022/02/20 00:05:47;;;;;;;;;;;;;;;;;;4856798;28;20377;-64
2022/02/20 00:08:13;;;;;;;;;;;;;;;;;;4819704;28;20080;-63
2022/02/20 00:10:39;;;;;;;;;;;;;;;;;;4791579;28;19932;-64
2022/02/20 00:13:05;;;;;;;;;;;;;;;;;;4871455;28;19922;-64
2022/02/20 00:15:33;;;;;;;;;;;;;;;;;;4795794;28;19968;-64
2022/02/20 00:18:01;;;;;;;;;;;;;;;;;;4850249;28;19929;-64
2022/02/20 00:20:30;;;;;;;;;;;;;;;;;;4835846;28;20016;-64
2022/02/20 00:22:56;;;;;;;;;;;;;;;;;;4757720;28;20919;-64
2022/02/20 00:25:22;;;;;;;;;;;;;;;;;;4756605;28;20048;-63
2022/02/20 00:27:48;;;;;;;;;;;;;;;;;;4755481;28;20544;-63
2022/02/20 00:30:14;;;;;;;;;;;;;;;;;;4751553;28;22031;-63
2022/02/20 00:32:40;;;;;;;;;;;;;;;;;;4768095;28;19997;-63
2022/02/20 00:35:07;;;;;;;;;;;;;;;;;;4818210;28;19922;-63
2022/02/20 00:37:33;;;;;;;;;;;;;;;;;;4806313;28;20070;-63
2022/02/20 00:39:59;;;;;;;;;;;;;;;;;;4754891;28;19933;-63
2022/02/20 00:42:25;;;;;;;;;;;;;;;;;;4759107;28;19923;-66
2022/02/20 00:44:51;;;;;;;;;;;;;;;;;;4756014;28;20024;-64
2022/02/20 00:47:17;;;;;;;;;;;;;;;;;;4760181;28;20661;-64
2022/02/20 00:49:44;;;;;;;;;;;;;;;;;;4807422;28;19929;-64
2022/02/20 00:52:09;;;;;;;;;;;;;;;;;;4801176;28;20020;-64
2022/02/20 00:54:36;;;;;;;;;;;;;;;;;;4760696;28;20673;-64
2022/02/20 00:57:02;;;;;;;;;;;;;;;;;;4751125;28;20788;-64
2022/02/20 00:59:28;;;;;;;;;;;;;;;;;;4759975;28;20693;-64
2022/02/20 01:01:54;;;;;;;;;;;;;;;;;;4758376;28;19922;-64
2022/02/20 01:04:21;;;;;;;;;;;;;;;;;;4760197;28;19929;-64
2022/02/20 01:06:47;;;;;;;;;;;;;;;;;;4757370;28;20693;-65
2022/02/20 01:09:13;;;;;;;;;;;;;;;;;;4757607;28;19926;-63
2022/02/20 01:11:39;;;;;;;;;;;;;;;;;;4759090;28;20219;-63
2022/02/20 01:14:05;;;;;;;;;;;;;;;;;;4772421;28;20643;-63
2022/02/20 01:16:31;;;;;;;;;;;;;;;;;;4769350;28;19922;-63
2022/02/20 01:18:58;;;;;;;;;;;;;;;;;;4756172;28;20581;-63
2022/02/20 01:21:24;;;;;;;;;;;;;;;;;;4758830;28;20869;-63
2022/02/20 01:23:50;;;;;;;;;;;;;;;;;;4794422;28;19925;-63
2022/02/20 01:26:16;;;;;;;;;;;;;;;;;;4802180;28;19922;-65
2022/02/20 01:28:42;;;;;;;;;;;;;;;;;;4780703;28;19921;-63
2022/02/20 01:31:08;;;;;;;;;;;;;;;;;;4801132;28;19922;-64
2022/02/20 01:33:34;;;;;;;;;;;;;;;;;;4798340;28;19922;-64
2022/02/20 01:36:00;;;;;;;;;;;;;;;;;;4798940;28;19957;-63
2022/02/20 01:38:26;;;;;;;;;;;;;;;;;;4795749;28;22963;-63
2022/02/20 01:40:55;;;;;;;;;;;;;;;;;;4792792;28;20064;-63
2022/02/20 01:43:21;;;;;;;;;;;;;;;;;;4777544;28;19921;-64
2022/02/20 01:45:47;;;;;;;;;;;;;;;;;;4798299;28;19928;-64
2022/02/20 01:48:13;;;;;;;;;;;;;;;;;;4798824;28;20533;-64
2022/02/20 01:50:39;;;;;;;;;;;;;;;;;;4797870;28;21278;-64
2022/02/20 01:53:05;;;;;;;;;;;;;;;;;;4776679;28;22259;-64
2022/02/20 01:55:31;;;;;;;;;;;;;;;;;;4798148;28;20449;-63
2022/02/20 01:57:57;;;;;;;;;;;;;;;;;;4835160;28;19928;-63
2022/02/20 02:00:25;;;;;;;;;;;;;;;;;;4871134;28;20549;-63
2022/02/20 02:02:51;;;;;;;;;;;;;;;;;;4767918;28;19968;-63
2022/02/20 02:05:16;;;;;;;;;;;;;;;;;;4790160;28;19981;-63
2022/02/20 02:07:42;;;;;;;;;;;;;;;;;;4792344;28;19929;-63
2022/02/20 02:10:08;;;;;;;;;;;;;;;;;;4794965;28;21288;-63
2022/02/20 02:12:35;;;;;;;;;;;;;;;;;;4793090;28;19921;-63
2022/02/20 02:15:02;;;;;;;;;;;;;;;;;;4795659;28;19921;-64
2022/02/20 02:17:30;;;;;;;;;;;;;;;;;;4791880;28;20561;-65
2022/02/20 02:19:56;;;;;;;;;;;;;;;;;;4795906;28;22358;-64
2022/02/20 02:22:22;;;;;;;;;;;;;;;;;;4797025;28;20023;-63
2022/02/20 02:24:48;;;;;;;;;;;;;;;;;;4794677;28;20669;-64
2022/02/20 02:27:14;;;;;;;;;;;;;;;;;;4795510;28;19928;-64
2022/02/20 02:29:40;;;;;;;;;;;;;;;;;;4774849;28;19926;-64
2022/02/20 02:32:06;;;;;;;;;;;;;;;;;;4795234;28;20622;-63
2022/02/20 02:34:32;;;;;;;;;;;;;;;;;;4773031;28;20633;-63
2022/02/20 02:36:58;;;;;;;;;;;;;;;;;;4795482;28;20325;-63
2022/02/20 02:39:24;;;;;;;;;;;;;;;;;;4790393;28;21510;-64
2022/02/20 02:41:50;;;;;;;;;;;;;;;;;;4774655;28;20619;-63
2022/02/20 02:44:16;;;;;;;;;;;;;;;;;;4794653;28;19922;-63
2022/02/20 02:46:42;;;;;;;;;;;;;;;;;;4796522;28;20650;-63
2022/02/20 02:49:09;;;;;;;;;;;;;;;;;;4794930;28;20150;-64
2022/02/20 02:51:35;;;;;;;;;;;;;;;;;;4790938;28;20210;-63
2022/02/20 02:54:01;;;;;;;;;;;;;;;;;;4795319;28;20215;-64
2022/02/20 02:56:27;;;;;;;;;;;;;;;;;;4792904;28;19922;-64
2022/02/20 02:58:53;;;;;;;;;;;;;;;;;;4793134;28;20384;-64
2022/02/20 03:01:19;;;;;;;;;;;;;;;;;;4898664;28;20033;-63
2022/02/20 03:03:45;;;;;;;;;;;;;;;;;;4798537;28;19921;-64
2022/02/20 03:06:11;;;;;;;;;;;;;;;;;;4773659;28;19933;-64
2022/02/20 03:08:37;;;;;;;;;;;;;;;;;;4773306;28;20708;-64
2022/02/20 03:11:03;;;;;;;;;;;;;;;;;;4793916;28;19941;-64
2022/02/20 03:13:29;;;;;;;;;;;;;;;;;;4773638;28;20464;-64
2022/02/20 03:15:55;;;;;;;;;;;;;;;;;;4793270;28;21381;-64
2022/02/20 03:18:22;;;;;;;;;;;;;;;;;;4794099;28;20218;-64
2022/02/20 03:20:48;;;;;;;;;;;;;;;;;;4794145;28;19921;-64
2022/02/20 03:23:15;;;;;;;;;;;;;;;;;;4793137;28;19933;-63
2022/02/20 03:25:41;;;;;;;;;;;;;;;;;;4794520;28;19932;-63
2022/02/20 03:28:07;;;;;;;;;;;;;;;;;;4792566;28;19921;-63
2022/02/20 03:30:33;;;;;;;;;;;;;;;;;;4791461;28;20588;-63
2022/02/20 03:32:59;;;;;;;;;;;;;;;;;;4794055;28;20246;-63
2022/02/20 03:35:24;;;;;;;;;;;;;;;;;;4793315;28;19921;-65
2022/02/20 03:37:50;;;;;;;;;;;;;;;;;;4769673;28;19965;-63
2022/02/20 03:40:16;;;;;;;;;;;;;;;;;;4792586;28;20000;-64
2022/02/20 03:42:42;;;;;;;;;;;;;;;;;;4790561;28;20220;-65
2022/02/20 03:45:09;;;;;;;;;;;;;;;;;;4768689;28;20440;-63
2022/02/20 03:47:35;;;;;;;;;;;;;;;;;;4789088;28;19921;-63
2022/02/20 03:50:01;;;;;;;;;;;;;;;;;;4769960;28;20056;-63
2022/02/20 03:52:27;;;;;;;;;;;;;;;;;;4770438;28;20333;-65
2022/02/20 03:54:52;;;;;;;;;;;;;;;;;;4791958;28;21498;-65
2022/02/20 03:57:18;;;;;;;;;;;;;;;;;;4792873;28;19933;-65
2022/02/20 03:59:44;;;;;;;;;;;;;;;;;;4771134;28;20743;-63
2022/02/20 04:02:10;;;;;;;;;;;;;;;;;;4769587;28;20685;-64
2022/02/20 04:04:37;;;;;;;;;;;;;;;;;;4770055;28;21280;-63
2022/02/20 04:07:03;;;;;;;;;;;;;;;;;;4792346;28;19922;-63
2022/02/20 04:09:29;;;;;;;;;;;;;;;;;;4791165;28;19937;-63
2022/02/20 04:11:55;;;;;;;;;;;;;;;;;;4790055;28;20652;-64
2022/02/20 04:14:21;;;;;;;;;;;;;;;;;;4793148;28;19926;-64
2022/02/20 04:16:47;;;;;;;;;;;;;;;;;;4775035;28;19928;-64
2022/02/20 04:19:13;;;;;;;;;;;;;;;;;;4791098;28;19925;-64
2022/02/20 04:21:39;;;;;;;;;;;;;;;;;;4791582;28;19922;-64
2022/02/20 04:24:05;;;;;;;;;;;;;;;;;;4789913;28;20300;-64
2022/02/20 04:26:33;;;;;;;;;;;;;;;;;;4792535;28;20664;-66
2022/02/20 04:28:59;;;;;;;;;;;;;;;;;;4791250;28;19929;-64
2022/02/20 04:31:25;;;;;;;;;;;;;;;;;;4771442;28;19921;-64
2022/02/20 04:33:51;;;;;;;;;;;;;;;;;;4769670;28;19926;-64
2022/02/20 04:36:18;;;;;;;;;;;;;;;;;;4772019;28;20586;-64
2022/02/20 04:38:44;;;;;;;;;;;;;;;;;;4768732;28;19933;-64
2022/02/20 04:41:10;;;;;;;;;;;;;;;;;;4792509;28;19921;-64
2022/02/20 04:43:37;;;;;;;;;;;;;;;;;;4791149;28;20683;-64
2022/02/20 04:46:03;;;;;;;;;;;;;;;;;;4791170;28;20782;-64
2022/02/20 04:48:29;;;;;;;;;;;;;;;;;;4791264;28;20755;-64
2022/02/20 04:50:55;;;;;;;;;;;;;;;;;;4770010;28;20790;-64
2022/02/20 04:53:21;;;;;;;;;;;;;;;;;;4769387;28;19926;-64
2022/02/20 04:55:47;;;;;;;;;;;;;;;;;;4793313;28;20012;-65
2022/02/20 04:58:13;;;;;;;;;;;;;;;;;;4792075;28;20724;-63
2022/02/20 05:00:39;;;;;;;;;;;;;;;;;;4790232;28;21729;-63
2022/02/20 05:03:05;;;;;;;;;;;;;;;;;;4788975;28;20293;-63
2022/02/20 05:05:31;;;;;;;;;;;;;;;;;;4791407;28;19952;-63
2022/02/20 05:07:57;;;;;;;;;;;;;;;;;;4770367;28;19922;-63
2022/02/20 05:10:23;;;;;;;;;;;;;;;;;;4792621;28;19921;-63
2022/02/20 05:12:49;;;;;;;;;;;;;;;;;;4791393;28;19922;-63
2022/02/20 05:15:15;;;;;;;;;;;;;;;;;;4789677;28;20000;-65
2022/02/20 05:17:42;;;;;;;;;;;;;;;;;;4790529;28;20606;-65
2022/02/20 05:20:09;;;;;;;;;;;;;;;;;;4769490;28;19952;-65
2022/02/20 05:22:35;;;;;;;;;;;;;;;;;;4791600;28;19926;-65
2022/02/20 05:25:01;;;;;;;;;;;;;;;;;;4773874;28;19977;-65
2022/02/20 05:27:27;;;;;;;;;;;;;;;;;;4793515;28;20342;-65
2022/02/20 05:29:53;;;;;;;;;;;;;;;;;;4772032;28;21948;-65
2022/02/20 05:32:23;;;;;;;;;;;;;;;;;;4772767;28;20025;-65
2022/02/20 05:34:49;;;;;;;;;;;;;;;;;;4795588;28;20135;-65
2022/02/20 05:37:15;;;;;;;;;;;;;;;;;;4794228;28;20449;-65
2022/02/20 05:39:41;;;;;;;;;;;;;;;;;;4794604;28;20223;-64
2022/02/20 05:42:07;;;;;;;;;;;;;;;;;;4774251;28;19929;-64
2022/02/20 05:44:33;;;;;;;;;;;;;;;;;;4805342;28;19922;-64
2022/02/20 05:46:59;;;;;;;;;;;;;;;;;;4793995;28;19928;-64
2022/02/20 05:49:25;;;;;;;;;;;;;;;;;;4792932;28;20649;-64
2022/02/20 05:51:51;;;;;;;;;;;;;;;;;;4793258;28;21280;-63
2022/02/20 05:54:17;;;;;;;;;;;;;;;;;;4772531;28;19917;-64
2022/02/20 05:56:43;;;;;;;;;;;;;;;;;;4793792;28;19922;-63
2022/02/20 05:59:10;;;;;;;;;;;;;;;;;;4794787;28;20117;-62
2022/02/20 06:01:36;;;;;;;;;;;;;;;;;;4793057;28;22335;-63
2022/02/20 06:04:01;;;;;;;;;;;;;;;;;;4792906;28;19922;-64
2022/02/20 06:06:32;;;;;;;;;;;;;;;;;;4793414;28;20614;-63
2022/02/20 06:08:58;;;;;;;;;;;;;;;;;;4772210;28;20682;-63
2022/02/20 06:11:24;;;;;;;;;;;;;;;;;;4793006;28;19968;-63
2022/02/20 06:13:50;;;;;;;;;;;;;;;;;;4770568;28;19949;-63
2022/02/20 06:16:16;;;;;;;;;;;;;;;;;;4793451;28;21485;-63
2022/02/20 06:18:42;;;;;;;;;;;;;;;;;;4770815;28;19983;-63
2022/02/20 06:21:08;;;;;;;;;;;;;;;;;;4793432;28;20669;-63
2022/02/20 06:23:34;;;;;;;;;;;;;;;;;;4792197;28;19929;-63
2022/02/20 06:26:00;;;;;;;;;;;;;;;;;;4793276;28;19922;-63
2022/02/20 06:28:26;;;;;;;;;;;;;;;;;;4793239;28;20695;-63
2022/02/20 06:30:52;;;;;;;;;;;;;;;;;;4770366;28;20051;-63
2022/02/20 06:33:18;;;;;;;;;;;;;;;;;;4792624;28;21276;-65
2022/02/20 06:35:44;;;;;;;;;;;;;;;;;;4794229;28;19922;-62
2022/02/20 06:38:10;;;;;;;;;;;;;;;;;;4774330;28;20647;-63
2022/02/20 06:40:36;;;;;;;;;;;;;;;;;;4794537;28;20044;-63
2022/02/20 06:43:02;;;;;;;;;;;;;;;;;;4796892;28;20614;-62
2022/02/20 06:45:28;;;;;;;;;;;;;;;;;;4797191;28;20060;-63
2022/02/20 06:47:54;;;;;;;;;;;;;;;;;;4796993;28;20027;-63
2022/02/20 06:50:20;;;;;;;;;;;;;;;;;;4796188;28;20712;-63
2022/02/20 06:52:46;;;;;;;;;;;;;;;;;;4794711;28;20731;-64
2022/02/20 06:55:12;;;;;;;;;;;;;;;;;;4793055;28;20163;-63
2022/02/20 06:57:38;;;;;;;;;;;;;;;;;;4791663;28;21679;-67
2022/02/20 07:00:06;;;;;;;;;;;;;;;;;;4791955;28;19921;-63
2022/02/20 07:02:32;;;;;;;;;;;;;;;;;;4772427;28;19922;-63
2022/02/20 07:04:58;;;;;;;;;;;;;;;;;;4793560;28;20699;-64
2022/02/20 07:07:24;;;;;;;;;;;;;;;;;;4791536;28;19922;-63
2022/02/20 07:09:50;;;;;;;;;;;;;;;;;;4792455;28;20092;-63
2022/02/20 07:12:16;;;;;;;;;;;;;;;;;;4792393;28;20234;-64
2022/02/20 07:14:42;;;;;;;;;;;;;;;;;;4793105;28;20062;-63
2022/02/20 07:17:08;;;;;;;;;;;;;;;;;;4792571;28;21166;-63
2022/02/20 07:19:34;;;;;;;;;;;;;;;;;;4771945;28;19961;-63
2022/02/20 07:22:00;;;;;;;;;;;;;;;;;;4791638;28;20699;-63
2022/02/20 07:24:26;;;;;;;;;;;;;;;;;;4791251;28;20222;-63
2022/02/20 07:26:52;;;;;;;;;;;;;;;;;;4791411;28;20917;-64
2022/02/20 07:29:18;;;;;;;;;;;;;;;;;;4791138;28;20335;-63
2022/02/20 07:31:44;;;;;;;;;;;;;;;;;;4791664;28;20645;-63
2022/02/20 07:34:10;;;;;;;;;;;;;;;;;;4790201;28;19980;-63
2022/02/20 07:36:41;;;;;;;;;;;;;;;;;;4792772;28;19921;-62
2022/02/20 07:39:07;;;;;;;;;;;;;;;;;;4790938;28;20599;-65
2022/02/20 07:41:33;;;;;;;;;;;;;;;;;;4792379;28;20138;-65
2022/02/20 07:43:59;;;;;;;;;;;;;;;;;;4770778;28;22019;-65
2022/02/20 07:46:25;;;;;;;;;;;;;;;;;;4793428;28;19926;-65
2022/02/20 07:48:55;;;;;;;;;;;;;;;;;;4767827;28;20450;-66
2022/02/20 07:51:21;;;;;;;;;;;;;;;;;;4790250;28;20155;-65
2022/02/20 07:53:48;;;;;;;;;;;;;;;;;;4791519;28;20684;-65
2022/02/20 07:56:14;;;;;;;;;;;;;;;;;;4790336;28;20000;-65
2022/02/20 07:58:40;;;;;;;;;;;;;;;;;;4769630;28;19925;-65
2022/02/20 08:01:06;;;;;;;;;;;;;;;;;;4790281;28;20017;-65
2022/02/20 08:03:32;;;;;;;;;;;;;;;;;;4789822;28;19928;-63
2022/02/20 08:06:01;;;;;;;;;;;;;;;;;;4769737;28;20071;-63
2022/02/20 08:08:27;;;;;;;;;;;;;;;;;;4769991;28;20028;-63
2022/02/20 08:10:53;;;;;;;;;;;;;;;;;;4791026;28;21254;-64
2022/02/20 08:13:19;;;;;;;;;;;;;;;;;;4790384;28;20000;-63
2022/02/20 08:15:45;;;;;;;;;;;;;;;;;;4770327;28;20998;-64
2022/02/20 08:18:11;;;;;;;;;;;;;;;;;;4770310;28;19969;-63
2022/02/20 08:20:39;;;;;;;;;;;;;;;;;;4790381;28;19922;-64
2022/02/20 08:23:05;;;;;;;;;;;;;;;;;;4755563;28;20630;-63
2022/02/20 08:25:31;;;;;;;;;;;;;;;;;;4746868;28;20092;-63
2022/02/20 08:27:57;;;;;;;;;;;;;;;;;;4748234;28;19922;-63
2022/02/20 08:30:23;;;;;;;;;;;;;;;;;;4749172;28;19967;-63
2022/02/20 08:32:49;;;;;;;;;;;;;;;;;;4747206;28;20156;-63
2022/02/20 08:35:15;;;;;;;;;;;;;;;;;;4747873;28;20338;-63
2022/02/20 08:37:43;;;;;;;;;;;;;;;;;;4746615;28;20571;-63
2022/02/20 08:40:09;;;;;;;;;;;;;;;;;;4747768;28;19949;-63
2022/02/20 08:42:36;;;;;;;;;;;;;;;;;;4748319;28;19929;-63
2022/02/20 08:45:02;;;;;;;;;;;;;;;;;;4747042;28;21952;-62
2022/02/20 08:47:28;;;;;;;;;;;;;;;;;;4749004;28;19918;-63
2022/02/20 08:49:54;;;;;;;;;;;;;;;;;;4747683;28;20646;-63
2022/02/20 08:52:22;;;;;;;;;;;;;;;;;;4762747;28;19942;-63
2022/02/20 08:54:48;;;;;;;;;;;;;;;;;;4749501;28;20952;-62
2022/02/20 08:57:14;;;;;;;;;;;;;;;;;;4752522;28;19926;-65
2022/02/20 08:59:40;;;;;;;;;;;;;;;;;;4754404;28;19929;-62
2022/02/20 09:02:07;;;;;;;;;;;;;;;;;;4754550;28;21190;-63
2022/02/20 09:04:33;;;;;;;;;;;;;;;;;;4753299;28;20654;-62
2022/02/20 09:06:59;;;;;;;;;;;;;;;;;;4766165;28;20366;-64
2022/02/20 09:09:25;;;;;;;;;;;;;;;;;;4752808;28;20720;-63
2022/02/20 09:11:51;;;;;;;;;;;;;;;;;;4751749;28;19923;-63
2022/02/20 09:14:17;;;;;;;;;;;;;;;;;;4751443;28;19919;-63
2022/02/20 09:16:43;;;;;;;;;;;;;;;;;;4749882;28;19934;-63
2022/02/20 09:19:09;;;;;;;;;;;;;;;;;;4749034;28;19970;-63
2022/02/20 09:21:35;;;;;;;;;;;;;;;;;;4751838;28;19929;-63
2022/02/20 09:24:01;;;;;;;;;;;;;;;;;;4793779;28;20748;-64
2022/02/20 09:26:27;;;;;;;;;;;;;;;;;;4794743;28;20048;-64
2022/02/20 09:28:53;;;;;;;;;;;;;;;;;;4772228;28;20532;-65
2022/02/20 09:31:20;;;;;;;;;;;;;;;;;;4796076;28;20052;-65
2022/02/20 09:33:46;;;;;;;;;;;;;;;;;;4772671;28;19925;-65
2022/02/20 09:36:12;;;;;;;;;;;;;;;;;;4796091;28;19952;-65
2022/02/20 09:38:38;;;;;;;;;;;;;;;;;;4794521;28;20016;-66
2022/02/20 09:41:04;;;;;;;;;;;;;;;;;;4772391;28;19926;-65
2022/02/20 09:43:30;;;;;;;;;;;;;;;;;;4792714;28;20443;-65
2022/02/20 09:45:57;;;;;;;;;;;;;;;;;;4793524;28;19922;-65
2022/02/20 09:48:23;;;;;;;;;;;;;;;;;;4771365;28;20811;-65
2022/02/20 09:50:49;;;;;;;;;;;;;;;;;;4794543;28;20333;-64
2022/02/20 09:53:15;;;;;;;;;;;;;;;;;;4772850;28;20279;-63
2022/02/20 09:55:41;;;;;;;;;;;;;;;;;;4795068;28;20659;-63
2022/02/20 09:58:08;;;;;;;;;;;;;;;;;;4794214;28;19926;-63
2022/02/20 10:00:34;;;;;;;;;;;;;;;;;;4775675;28;19922;-66
2022/02/20 10:03:02;;;;;;;;;;;;;;;;;;4771404;28;21805;-63
2022/02/20 10:05:28;;;;;;;;;;;;;;;;;;4794457;28;19998;-63
2022/02/20 10:07:55;;;;;;;;;;;;;;;;;;4795007;28;20093;-63
2022/02/20 10:10:21;;;;;;;;;;;;;;;;;;4795522;28;19928;-63
2022/02/20 10:12:47;;;;;;;;;;;;;;;;;;4797482;28;20231;-63
2022/02/20 10:15:13;;;;;;;;;;;;;;;;;;4796268;28;20059;-63
2022/02/20 10:17:39;;;;;;;;;;;;;;;;;;4797225;28;20008;-63
2022/02/20 10:20:05;;;;;;;;;;;;;;;;;;4774406;28;20004;-63
2022/02/20 10:22:33;;;;;;;;;;;;;;;;;;4772944;28;20683;-63
2022/02/20 10:25:00;;;;;;;;;;;;;;;;;;4792032;28;20008;-63
2022/02/20 10:27:26;;;;;;;;;;;;;;;;;;4772472;28;22233;-63
2022/02/20 10:29:52;;;;;;;;;;;;;;;;;;4772682;28;20028;-64
2022/02/20 10:32:18;;;;;;;;;;;;;;;;;;4794525;28;19921;-64
2022/02/20 10:34:44;;;;;;;;;;;;;;;;;;4795511;28;20645;-64
2022/02/20 10:37:10;;;;;;;;;;;;;;;;;;4773933;28;19921;-63
2022/02/20 10:39:36;;;;;;;;;;;;;;;;;;4794165;28;19922;-63
2022/02/20 10:42:02;;;;;;;;;;;;;;;;;;4795379;28;20649;-63
2022/02/20 10:44:28;;;;;;;;;;;;;;;;;;4773615;28;21434;-63
2022/02/20 10:46:54;;;;;;;;;;;;;;;;;;4771743;28;19953;-63
2022/02/20 10:49:20;;;;;;;;;;;;;;;;;;4776030;28;19925;-63
2022/02/20 10:51:46;;;;;;;;;;;;;;;;;;4792545;28;20689;-63
2022/02/20 10:54:12;;;;;;;;;;;;;;;;;;4793691;28;19981;-63
2022/02/20 10:56:38;;;;;;;;;;;;;;;;;;4794901;28;20062;-63
2022/02/20 10:59:04;;;;;;;;;;;;;;;;;;4792953;28;20124;-63
2022/02/20 11:01:30;;;;;;;;;;;;;;;;;;4792381;28;19956;-63
2022/02/20 11:03:56;;;;;;;;;;;;;;;;;;4792676;28;19921;-63
2022/02/20 11:06:23;;;;;;;;;;;;;;;;;;4794894;28;20016;-63
2022/02/20 11:08:50;;;;;;;;;;;;;;;;;;4812962;28;19921;-63
2022/02/20 11:14:00;;;;;;;;;;;;;;;;;;4796538;28;20600;-63
2022/02/20 11:16:26;;;;;;;;;;;;;;;;;;4794778;28;19922;-63
2022/02/20 11:18:52;;;;;;;;;;;;;;;;;;4794020;28;19965;-63
2022/02/20 11:21:18;;;;;;;;;;;;;;;;;;4795648;28;19921;-63
2022/02/20 11:26:35;;;;;;;;;;;;;;;;;;4793875;28;21452;-63
2022/02/20 11:29:01;;;;;;;;;;;;;;;;;;4794020;28;22309;-63
2022/02/20 11:31:28;;;;;;;;;;;;;;;;;;4770830;28;21999;-63
2022/02/20 11:33:55;;;;;;;;;;;;;;;;;;4786188;28;20293;-62
2022/02/20 11:36:21;;;;;;;;;;;;;;;;;;4788807;28;20051;-63
2022/02/20 11:38:47;;;;;;;;;;;;;;;;;;4846062;28;19969;-63
2022/02/20 11:41:15;;;;;;;;;;;;;;;;;;4793953;28;19926;-63
2022/02/20 11:43:41;;;;;;;;;;;;;;;;;;4786699;28;21037;-64
2022/02/20 11:46:07;;;;;;;;;;;;;;;;;;4784725;28;20614;-64
2022/02/20 11:48:33;;;;;;;;;;;;;;;;;;4866588;28;19925;-63
2022/02/20 11:50:59;;;;;;;;;;;;;;;;;;4787533;28;19932;-64
2022/02/20 11:53:25;;;;;;;;;;;;;;;;;;4792688;28;19922;-64
2022/02/20 11:55:51;;;;;;;;;;;;;;;;;;4790578;28;19922;-64
2022/02/20 11:58:21;;;;;;;;;;;;;;;;;;4798388;28;20095;-63
2022/02/20 12:00:48;;;;;;;;;;;;;;;;;;4853454;28;20051;-63
2022/02/20 12:03:17;;;;;;;;;;;;;;;;;;4773253;28;20556;-62
2022/02/20 12:05:43;;;;;;;;;;;;;;;;;;4794148;28;20197;-63
2022/02/20 12:08:10;;;;;;;;;;;;;;;;;;4794122;28;20512;-63
2022/02/20 12:10:36;;;;;;;;;;;;;;;;;;4794484;28;20048;-63
2022/02/20 12:13:03;;;;;;;;;;;;;;;;;;4774887;28;19932;-64
2022/02/20 12:15:31;;;;;;;;;;;;;;;;;;4791679;28;20234;-64
2022/02/20 12:17:57;;;;;;;;;;;;;;;;;;4792836;28;19969;-64
2022/02/20 12:20:23;;;;;;;;;;;;;;;;;;4788315;28;19922;-65
2022/02/20 12:22:51;;;;;;;;;;;;;;;;;;4766502;28;20976;-64
2022/02/20 12:25:18;;;;;;;;;;;;;;;;;;4765897;28;19929;-64
2022/02/20 12:27:45;;;;;;;;;;;;;;;;;;4790773;28;20620;-64
2022/02/20 12:30:11;;;;;;;;;;;;;;;;;;4789348;28;19964;-63
2022/02/20 12:32:37;;;;;;;;;;;;;;;;;;4793403;28;19999;-66
2022/02/20 12:35:03;;;;;;;;;;;;;;;;;;4794052;28;19930;-63
2022/02/20 12:37:29;;;;;;;;;;;;;;;;;;4793081;28;20681;-64
2022/02/20 12:39:55;;;;;;;;;;;;;;;;;;4792474;28;19929;-63
2022/02/20 12:42:23;;;;;;;;;;;;;;;;;;4794288;28;20012;-66
2022/02/20 12:44:50;;;;;;;;;;;;;;;;;;4793757;28;19922;-63
2022/02/20 12:47:16;;;;;;;;;;;;;;;;;;4793978;28;20013;-63
2022/02/20 12:52:32;;;;;;;;;;;;;;;;;;4804842;28;20026;-63
2022/02/20 12:54:58;;;;;;;;;;;;;;;;;;4793362;28;19925;-63
2022/02/20 12:57:24;;;;;;;;;;;;;;;;;;4772234;28;19918;-64
2022/02/20 12:59:50;;;;;;;;;;;;;;;;;;4794237;28;20000;-64
2022/02/20 13:02:16;;;;;;;;;;;;;;;;;;4793870;28;19984;-64
2022/02/20 13:04:42;;;;;;;;;;;;;;;;;;4773193;28;22281;-67
2022/02/20 13:07:08;;;;;;;;;;;;;;;;;;4795391;28;20056;-67
2022/02/20 13:09:34;;;;;;;;;;;;;;;;;;4792752;28;19930;-66
2022/02/20 13:12:00;;;;;;;;;;;;;;;;;;4791495;28;20754;-65
2022/02/20 13:14:26;;;;;;;;;;;;;;;;;;4792657;28;19921;-67
2022/02/20 13:16:53;;;;;;;;;;;;;;;;;;4790722;28;20055;-66
2022/02/20 13:19:19;;;;;;;;;;;;;;;;;;4792674;28;19930;-67
2022/02/20 13:21:45;;;;;;;;;;;;;;;;;;4793230;28;19996;-66
2022/02/20 13:24:11;;;;;;;;;;;;;;;;;;4791710;28;21503;-66
2022/02/20 13:26:37;;;;;;;;;;;;;;;;;;4792501;28;20020;-67
2022/02/20 13:29:03;;;;;;;;;;;;;;;;;;4791011;28;20681;-67
2022/02/20 13:31:29;;;;;;;;;;;;;;;;;;4792579;28;19921;-67
2022/02/20 13:33:55;;;;;;;;;;;;;;;;;;4772321;28;21071;-67
2022/02/20 13:36:21;;;;;;;;;;;;;;;;;;4793907;28;20020;-66
2022/02/20 13:38:47;;;;;;;;;;;;;;;;;;4792411;28;19929;-68
2022/02/20 13:41:13;;;;;;;;;;;;;;;;;;4793932;28;19932;-68
2022/02/20 13:43:39;;;;;;;;;;;;;;;;;;4796868;28;19960;-68
2022/02/20 13:46:05;;;;;;;;;;;;;;;;;;4794246;28;19922;-67
2022/02/20 13:48:31;;;;;;;;;;;;;;;;;;4776857;28;20693;-67
2022/02/20 13:50:57;;;;;;;;;;;;;;;;;;4796529;28;21629;-67
2022/02/20 13:53:23;;;;;;;;;;;;;;;;;;4793222;28;22006;-67
2022/02/20 13:55:49;;;;;;;;;;;;;;;;;;4794263;28;20022;-65
2022/02/20 13:58:15;;;;;;;;;;;;;;;;;;4810732;28;19925;-68
2022/02/20 14:00:41;;;;;;;;;;;;;;;;;;4797172;28;19926;-66
2022/02/20 14:03:07;;;;;;;;;;;;;;;;;;4773663;28;19933;-68
2022/02/20 14:05:33;;;;;;;;;;;;;;;;;;4776454;28;20649;-68
2022/02/20 14:07:59;;;;;;;;;;;;;;;;;;4797337;28;20039;-67
2022/02/20 14:10:25;;;;;;;;;;;;;;;;;;4795109;28;20629;-67
2022/02/20 14:12:51;;;;;;;;;;;;;;;;;;4796613;28;20726;-67
2022/02/20 14:15:18;;;;;;;;;;;;;;;;;;4794548;28;20016;-66
2022/02/20 14:17:44;;;;;;;;;;;;;;;;;;4795530;28;19925;-68
2022/02/20 14:20:11;;;;;;;;;;;;;;;;;;4796023;28;20586;-66
2022/02/20 14:22:37;;;;;;;;;;;;;;;;;;4795135;28;20138;-66
2022/02/20 14:25:03;;;;;;;;;;;;;;;;;;4794224;28;21809;-65
2022/02/20 14:27:29;;;;;;;;;;;;;;;;;;4794521;28;19921;-68
2022/02/20 14:29:55;;;;;;;;;;;;;;;;;;4795623;28;19921;-68
2022/02/20 14:32:21;;;;;;;;;;;;;;;;;;4796497;28;19922;-67
2022/02/20 14:34:52;;;;;;;;;;;;;;;;;;4795093;28;20506;-68
2022/02/20 14:37:18;;;;;;;;;;;;;;;;;;4795768;28;19992;-67
2022/02/20 14:39:44;;;;;;;;;;;;;;;;;;4795807;28;20549;-68
2022/02/20 14:42:10;;;;;;;;;;;;;;;;;;4776093;28;20710;-68
2022/02/20 14:44:36;;;;;;;;;;;;;;;;;;4794606;28;20736;-68
2022/02/20 14:47:02;;;;;;;;;;;;;;;;;;4795961;28;19921;-68
2022/02/20 14:49:28;;;;;;;;;;;;;;;;;;4794734;28;20608;-68
2022/02/20 14:51:54;;;;;;;;;;;;;;;;;;4771952;28;19965;-67
2022/02/20 14:54:22;;;;;;;;;;;;;;;;;;4793191;28;20122;-68
2022/02/20 14:56:48;;;;;;;;;;;;;;;;;;4773505;28;21904;-68
2022/02/20 14:59:16;;;;;;;;;;;;;;;;;;4789742;28;21956;-68
2022/02/20 15:01:43;;;;;;;;;;;;;;;;;;4789384;28;20759;-68
2022/02/20 15:04:09;;;;;;;;;;;;;;;;;;4794553;28;19976;-68
2022/02/20 15:06:34;;;;;;;;;;;;;;;;;;4795731;28;19957;-66
2022/02/20 15:09:00;;;;;;;;;;;;;;;;;;4773395;28;20644;-67
2022/02/20 15:11:32;;;;;;;;;;;;;;;;;;4795655;28;20625;-66
2022/02/20 15:13:59;;;;;;;;;;;;;;;;;;4849785;28;19933;-67
2022/02/20 15:16:26;;;;;;;;;;;;;;;;;;4771129;28;20638;-65
2022/02/20 15:18:52;;;;;;;;;;;;;;;;;;4791177;28;22033;-66
2022/02/20 15:21:18;;;;;;;;;;;;;;;;;;4851410;28;20688;-68
2022/02/20 15:23:45;;;;;;;;;;;;;;;;;;4792538;28;20770;-67
2022/02/20 15:26:11;;;;;;;;;;;;;;;;;;4772381;28;19922;-66
2022/02/20 15:28:37;;;;;;;;;;;;;;;;;;4793679;28;20667;-66
2022/02/20 15:31:05;;;;;;;;;;;;;;;;;;4837098;28;19972;-66
2022/02/20 15:33:31;;;;;;;;;;;;;;;;;;4811094;28;20612;-66
2022/02/20 15:35:57;;;;;;;;;;;;;;;;;;4793972;28;20220;-66
2022/02/20 15:38:23;;;;;;;;;;;;;;;;;;4772007;28;21550;-67
2022/02/20 15:40:49;;;;;;;;;;;;;;;;;;4793259;28;19922;-66
2022/02/20 15:43:15;;;;;;;;;;;;;;;;;;4794301;28;19924;-67
2022/02/20 15:45:42;;;;;;;;;;;;;;;;;;4793074;28;20683;-67
2022/02/20 15:48:10;;;;;;;;;;;;;;;;;;4793855;28;19926;-67
2022/02/20 15:50:36;;;;;;;;;;;;;;;;;;4793542;28;19944;-67
2022/02/20 15:53:02;;;;;;;;;;;;;;;;;;4794457;28;19918;-68
2022/02/20 15:55:28;;;;;;;;;;;;;;;;;;4795944;28;20028;-67
2022/02/20 15:57:55;;;;;;;;;;;;;;;;;;4774415;28;19952;-67
2022/02/20 16:00:21;;;;;;;;;;;;;;;;;;4773848;28;19922;-69
2022/02/20 16:02:47;;;;;;;;;;;;;;;;;;4775711;28;20007;-68
2022/02/20 16:05:13;;;;;;;;;;;;;;;;;;4807394;28;19956;-68
2022/02/20 16:07:39;;;;;;;;;;;;;;;;;;4884763;28;20076;-68
2022/02/20 16:10:05;;;;;;;;;;;;;;;;;;4882286;28;19922;-68
2022/02/20 16:12:32;;;;;;;;;;;;;;;;;;4848330;28;19945;-68
2022/02/20 16:14:58;;;;;;;;;;;;;;;;;;4791731;28;20700;-66
2022/02/20 16:17:24;;;;;;;;;;;;;;;;;;4778917;28;19957;-66
2022/02/20 16:19:50;;;;;;;;;;;;;;;;;;4791477;28;20672;-68
2022/02/20 16:22:17;;;;;;;;;;;;;;;;;;4789523;28;20078;-68
2022/02/20 16:24:44;;;;;;;;;;;;;;;;;;4790819;28;20069;-66
2022/02/20 16:27:11;;;;;;;;;;;;;;;;;;4767286;28;20095;-69
2022/02/20 16:29:37;;;;;;;;;;;;;;;;;;4835314;28;19973;-66
2022/02/20 16:32:03;;;;;;;;;;;;;;;;;;4794444;28;19918;-68
2022/02/20 16:34:29;;;;;;;;;;;;;;;;;;4861179;28;20000;-68
2022/02/20 16:37:01;;;;;;;;;;;;;;;;;;4791904;28;20390;-68
2022/02/20 16:39:30;;;;;;;;;;;;;;;;;;4849608;28;19929;-67
2022/02/20 16:41:56;;;;;;;;;;;;;;;;;;4795274;28;19933;-66
2022/02/20 16:44:22;;;;;;;;;;;;;;;;;;4791954;28;20691;-67
2022/02/20 16:46:48;;;;;;;;;;;;;;;;;;4792476;28;20059;-66